createdAt,value
2022-10-18T00:00:07.657Z,11.60
2022-10-18T00:02:34.806Z,11.60
2022-10-18T00:05:02.125Z,11.60
2022-10-18T00:07:29.373Z,11.60
2022-10-18T00:09:56.646Z,11.60
2022-10-18T00:12:23.740Z,11.60
2022-10-18T00:14:51.322Z,11.50
2022-10-18T00:17:18.637Z,11.50
2022-10-18T00:19:46.693Z,11.40
2022-10-18T00:22:13.715Z,11.40
2022-10-18T00:24:40.645Z,11.40
2022-10-18T00:27:07.647Z,11.50
2022-10-18T00:29:34.819Z,11.40
2022-10-18T00:32:01.970Z,11.40
2022-10-18T00:34:29.032Z,11.40
2022-10-18T00:36:56.165Z,11.40
2022-10-18T00:39:23.264Z,11.40
2022-10-18T00:41:50.891Z,11.30
2022-10-18T00:44:17.739Z,11.30
2022-10-18T00:46:47.562Z,11.20
2022-10-18T00:49:54.612Z,11.30
2022-10-18T00:52:35.848Z,11.20
2022-10-18T00:55:04.735Z,11.20
2022-10-18T00:57:32.545Z,11.20
2022-10-18T00:59:59.948Z,11.20
2022-10-18T01:02:28.454Z,11.20
2022-10-18T01:04:55.566Z,11.20
2022-10-18T01:07:34.084Z,11.20
2022-10-18T01:10:23.191Z,11.10
2022-10-18T01:13:27.605Z,11.10
2022-10-18T01:16:10.838Z,11.10
2022-10-18T01:19:06.466Z,11.10
2022-10-18T01:21:33.379Z,11.20
2022-10-18T01:24:35.582Z,11.20
2022-10-18T01:27:02.565Z,11.20
2022-10-18T01:29:45.334Z,11.20
2022-10-18T01:32:26.771Z,11.20
2022-10-18T01:35:00.177Z,11.20
2022-10-18T01:37:30.078Z,11.20
2022-10-18T01:39:59.790Z,11.10
2022-10-18T01:42:27.720Z,11.10
2022-10-18T01:44:55.706Z,11.00
2022-10-18T01:47:24.002Z,11.00
2022-10-18T01:49:59.033Z,10.90
2022-10-18T01:52:26.028Z,10.90
2022-10-18T01:54:54.123Z,10.90
2022-10-18T01:57:31.442Z,10.80
2022-10-18T02:00:24.178Z,10.80
2022-10-18T02:02:56.261Z,10.80
2022-10-18T02:05:32.392Z,10.80
2022-10-18T02:08:23.421Z,10.90
2022-10-18T02:10:53.230Z,10.80
2022-10-18T02:13:22.403Z,10.80
2022-10-18T02:15:54.873Z,10.80
2022-10-18T02:18:28.254Z,10.80
2022-10-18T02:20:56.566Z,10.80
2022-10-18T02:23:26.666Z,10.90
2022-10-18T02:25:54.261Z,10.90
2022-10-18T02:28:21.860Z,10.80
2022-10-18T02:31:12.063Z,10.80
2022-10-18T02:33:46.687Z,10.80
2022-10-18T02:36:20.360Z,10.80
2022-10-18T02:38:50.875Z,10.80
2022-10-18T02:41:28.211Z,10.70
2022-10-18T02:43:55.205Z,10.70
2022-10-18T02:46:22.446Z,10.70
2022-10-18T02:48:50.036Z,10.80
2022-10-18T02:51:17.183Z,10.80
2022-10-18T02:53:44.216Z,10.90
2022-10-18T02:56:11.226Z,10.90
2022-10-18T02:58:38.299Z,11.00
2022-10-18T03:01:05.469Z,11.10
2022-10-18T03:03:32.412Z,11.10
2022-10-18T03:05:59.409Z,11.10
2022-10-18T03:08:26.719Z,11.20
2022-10-18T03:10:53.671Z,11.20
2022-10-18T03:13:21.050Z,11.30
2022-10-18T03:15:48.810Z,11.30
2022-10-18T03:18:16.118Z,11.30
2022-10-18T03:20:43.177Z,11.30
2022-10-18T03:23:10.224Z,11.30
2022-10-18T03:25:37.479Z,11.40
2022-10-18T03:28:04.848Z,11.40
2022-10-18T03:30:31.970Z,11.50
2022-10-18T03:32:59.255Z,11.50
2022-10-18T03:35:26.441Z,11.40
2022-10-18T03:37:53.341Z,11.40
2022-10-18T03:40:20.808Z,11.40
2022-10-18T03:42:47.820Z,11.40
2022-10-18T03:45:14.839Z,11.40
2022-10-18T03:47:41.889Z,11.50
2022-10-18T03:50:09.280Z,11.50
2022-10-18T03:52:36.320Z,11.50
2022-10-18T03:55:03.854Z,11.50
2022-10-18T03:57:31.133Z,11.60
2022-10-18T03:59:58.144Z,11.60
2022-10-18T04:02:25.606Z,11.70
2022-10-18T04:04:52.756Z,11.60
2022-10-18T04:07:19.680Z,11.60
2022-10-18T04:09:46.773Z,11.60
2022-10-18T04:12:13.755Z,11.60
2022-10-18T04:14:40.846Z,11.60
2022-10-18T04:17:07.775Z,11.60
2022-10-18T04:19:34.807Z,11.60
2022-10-18T04:22:01.824Z,11.70
2022-10-18T04:24:28.942Z,11.70
2022-10-18T04:26:55.945Z,11.70
2022-10-18T04:29:23.007Z,11.70
2022-10-18T04:31:50.009Z,11.70
2022-10-18T04:34:17.080Z,11.70
2022-10-18T04:36:44.034Z,11.70
2022-10-18T04:39:11.088Z,11.70
2022-10-18T04:41:38.042Z,11.70
2022-10-18T04:44:05.111Z,11.70
2022-10-18T04:46:32.037Z,11.60
2022-10-18T04:49:01.257Z,11.60
2022-10-18T04:51:31.246Z,11.50
2022-10-18T04:53:58.229Z,11.60
2022-10-18T04:56:25.351Z,11.60
2022-10-18T04:58:52.324Z,11.60
2022-10-18T05:01:19.522Z,11.60
2022-10-18T05:03:46.494Z,11.60
2022-10-18T05:06:13.438Z,11.60
2022-10-18T05:08:40.375Z,11.60
2022-10-18T05:11:07.343Z,11.60
2022-10-18T05:13:34.349Z,11.60
2022-10-18T05:16:02.591Z,11.50
2022-10-18T05:18:29.578Z,11.50
2022-10-18T05:20:57.024Z,11.60
2022-10-18T05:23:24.344Z,11.70
2022-10-18T05:25:51.538Z,11.70
2022-10-18T05:28:38.650Z,11.70
2022-10-18T05:31:07.838Z,11.80
2022-10-18T05:33:35.168Z,11.80
2022-10-18T05:36:02.537Z,11.80
2022-10-18T05:38:31.306Z,11.90
2022-10-18T05:40:59.396Z,11.90
2022-10-18T05:43:29.851Z,12.00
2022-10-18T05:45:57.224Z,12.00
2022-10-18T05:48:24.863Z,12.00
2022-10-18T05:50:51.855Z,12.00
2022-10-18T05:53:35.889Z,12.10
2022-10-18T05:56:04.715Z,12.10
2022-10-18T05:58:32.413Z,12.10
2022-10-18T06:01:02.763Z,12.10
2022-10-18T06:03:31.096Z,12.00
2022-10-18T06:06:08.738Z,12.10
2022-10-18T06:08:36.845Z,12.10
2022-10-18T06:11:14.477Z,12.20
2022-10-18T06:13:45.930Z,12.20
2022-10-18T06:16:14.423Z,12.20
2022-10-18T06:18:41.758Z,12.30
2022-10-18T06:21:09.320Z,12.30
2022-10-18T06:23:37.265Z,12.30
2022-10-18T06:26:07.456Z,12.40
2022-10-18T06:28:36.224Z,12.40
2022-10-18T06:31:04.528Z,12.50
2022-10-18T06:33:32.183Z,12.50
2022-10-18T06:36:07.678Z,12.50
2022-10-18T06:38:35.378Z,12.50
2022-10-18T06:41:03.211Z,12.50
2022-10-18T06:43:30.415Z,12.50
2022-10-18T06:45:57.395Z,12.50
2022-10-18T06:48:25.026Z,12.60
2022-10-18T06:51:03.764Z,12.60
2022-10-18T06:53:33.402Z,12.60
2022-10-18T06:56:07.398Z,12.60
2022-10-18T06:58:35.566Z,12.60
2022-10-18T07:01:07.937Z,12.60
2022-10-18T07:03:35.511Z,12.70
2022-10-18T07:06:03.931Z,12.70
2022-10-18T07:08:31.328Z,12.80
2022-10-18T07:10:58.470Z,12.90
2022-10-18T07:13:32.360Z,13.20
2022-10-18T07:16:08.652Z,13.40
2022-10-18T07:18:37.943Z,13.70
2022-10-18T07:21:07.103Z,14.10
2022-10-18T07:23:35.668Z,14.40
2022-10-18T07:26:05.452Z,14.90
2022-10-18T07:28:32.396Z,15.30
2022-10-18T07:31:06.209Z,16.20
2022-10-18T07:33:34.083Z,18.10
2022-10-18T07:36:09.027Z,19.90
2022-10-18T07:38:36.498Z,21.20
2022-10-18T07:41:06.632Z,22.40
2022-10-18T07:43:34.249Z,23.10
2022-10-18T07:46:03.973Z,23.40
2022-10-18T07:48:31.409Z,23.90
2022-10-18T07:51:02.160Z,24.00
2022-10-18T07:53:29.805Z,24.10
2022-10-18T07:56:07.116Z,24.00
2022-10-18T07:58:36.853Z,23.50
2022-10-18T08:01:08.774Z,22.90
2022-10-18T08:03:37.329Z,22.40
2022-10-18T08:06:06.767Z,22.00
2022-10-18T08:08:33.740Z,21.90
2022-10-18T08:11:09.385Z,21.80
2022-10-18T08:13:36.472Z,21.70
2022-10-18T08:16:07.783Z,21.90
2022-10-18T08:18:35.360Z,21.80
2022-10-18T08:21:04.059Z,21.60
2022-10-18T08:23:31.292Z,21.30
2022-10-18T08:26:02.554Z,21.00
2022-10-18T08:28:29.815Z,20.90
2022-10-18T08:30:56.826Z,20.80
2022-10-18T08:33:23.742Z,20.90
2022-10-18T08:35:58.098Z,21.00
2022-10-18T08:38:25.075Z,21.20
2022-10-18T08:40:52.408Z,21.40
2022-10-18T08:43:31.489Z,21.50
2022-10-18T08:45:59.333Z,21.40
2022-10-18T08:48:35.390Z,21.30
2022-10-18T08:51:04.899Z,21.20
2022-10-18T08:53:55.880Z,21.20
2022-10-18T08:56:24.594Z,21.10
2022-10-18T08:58:51.628Z,21.10
2022-10-18T09:01:46.247Z,21.20
2022-10-18T09:04:16.319Z,21.30
2022-10-18T09:06:54.238Z,21.50
2022-10-18T09:09:36.119Z,21.60
2022-10-18T09:12:15.020Z,21.60
2022-10-18T09:14:48.600Z,21.70
2022-10-18T09:17:38.167Z,21.70
2022-10-18T09:20:14.470Z,21.70
2022-10-18T09:23:20.345Z,21.60
2022-10-18T09:26:00.519Z,21.50
2022-10-18T09:29:01.295Z,21.60
2022-10-18T09:31:48.251Z,21.70
2022-10-18T09:34:38.132Z,21.90
2022-10-18T09:37:09.706Z,22.00
2022-10-18T09:39:39.191Z,22.00
2022-10-18T09:42:26.671Z,22.10
2022-10-18T09:45:00.432Z,22.30
2022-10-18T09:47:38.858Z,22.30
2022-10-18T09:50:27.701Z,22.30
2022-10-18T09:53:08.580Z,22.40
2022-10-18T09:55:50.617Z,22.70
2022-10-18T09:58:20.356Z,22.70
2022-10-18T10:00:52.890Z,22.70
2022-10-18T10:03:19.802Z,22.60
2022-10-18T10:05:47.144Z,22.50
2022-10-18T10:08:14.078Z,22.40
2022-10-18T10:10:48.084Z,22.30
2022-10-18T10:13:24.512Z,22.40
2022-10-18T10:16:01.296Z,22.50
2022-10-18T10:18:34.649Z,22.70
2022-10-18T10:21:05.983Z,22.80
2022-10-18T10:23:44.637Z,23.00
2022-10-18T10:26:29.176Z,23.40
2022-10-18T10:28:56.377Z,23.70
2022-10-18T10:31:26.514Z,23.60
2022-10-18T10:34:15.123Z,23.60
2022-10-18T10:36:51.186Z,23.50
2022-10-18T10:39:20.475Z,23.30
2022-10-18T10:41:56.663Z,23.10
2022-10-18T10:44:32.902Z,22.70
2022-10-18T10:47:00.234Z,22.40
2022-10-18T10:49:48.049Z,22.00
2022-10-18T10:52:27.226Z,21.70
2022-10-18T10:55:30.724Z,21.60
2022-10-18T10:57:47.303Z,21.60
2022-10-18T11:00:35.411Z,21.70
2022-10-18T11:03:27.280Z,21.70
2022-10-18T11:05:58.044Z,21.60
2022-10-18T11:08:28.422Z,21.30
2022-10-18T11:10:55.442Z,21.10
2022-10-18T11:13:28.325Z,21.00
2022-10-18T11:16:07.591Z,20.80
2022-10-18T11:18:36.773Z,20.70
2022-10-18T11:21:21.203Z,20.60
2022-10-18T11:23:48.177Z,20.70
2022-10-18T11:26:42.125Z,20.70
2022-10-18T11:29:26.383Z,20.70
2022-10-18T11:31:56.570Z,20.70
2022-10-18T11:34:26.550Z,20.70
2022-10-18T11:37:30.088Z,20.90
2022-10-18T11:40:23.245Z,21.20
2022-10-18T11:43:02.416Z,21.50
2022-10-18T11:46:12.005Z,21.90
2022-10-18T11:49:16.099Z,22.50
2022-10-18T11:52:09.030Z,23.20
2022-10-18T11:55:05.166Z,23.30
2022-10-18T11:57:44.598Z,22.90
2022-10-18T12:00:30.741Z,22.50
2022-10-18T12:03:17.034Z,22.20
2022-10-18T12:05:46.218Z,21.90
2022-10-18T12:08:15.879Z,21.80
2022-10-18T12:11:04.098Z,21.80
2022-10-18T12:13:38.091Z,21.70
2022-10-18T12:16:06.955Z,21.90
2022-10-18T12:18:36.207Z,22.30
2022-10-18T12:21:05.381Z,22.90
2022-10-18T12:23:59.517Z,23.30
2022-10-18T12:26:28.462Z,23.50
2022-10-18T12:28:59.964Z,23.20
2022-10-18T12:31:34.385Z,23.10
2022-10-18T12:34:17.161Z,23.00
2022-10-18T12:37:01.538Z,22.90
2022-10-18T12:39:43.617Z,22.90
2022-10-18T12:42:23.400Z,23.30
2022-10-18T12:45:00.922Z,23.30
2022-10-18T12:47:30.020Z,23.00
2022-10-18T12:50:04.030Z,22.60
2022-10-18T12:52:34.687Z,22.20
2022-10-18T12:55:13.917Z,21.80
2022-10-18T12:57:53.090Z,21.40
2022-10-18T13:00:32.519Z,21.10
2022-10-18T13:03:16.710Z,21.00
2022-10-18T13:05:55.649Z,21.10
2022-10-18T13:08:34.011Z,21.00
2022-10-18T13:11:10.356Z,21.00
2022-10-18T13:14:08.105Z,21.50
2022-10-18T13:16:45.548Z,21.90
2022-10-18T13:19:39.399Z,22.00
2022-10-18T13:22:24.506Z,22.10
2022-10-18T13:25:17.958Z,22.30
2022-10-18T13:27:49.720Z,22.40
2022-10-18T13:30:22.652Z,22.30
2022-10-18T13:33:28.140Z,22.30
2022-10-18T13:35:57.969Z,22.30
2022-10-18T13:38:42.620Z,22.10
2022-10-18T13:41:18.755Z,21.80
2022-10-18T13:43:59.139Z,21.60
2022-10-18T13:46:46.080Z,21.60
2022-10-18T13:49:50.759Z,21.80
2022-10-18T13:52:51.948Z,22.10
2022-10-18T13:55:43.811Z,22.20
2022-10-18T13:58:32.116Z,21.80
2022-10-18T14:01:26.426Z,21.30
2022-10-18T14:04:12.161Z,20.90
2022-10-18T14:06:46.327Z,20.90
2022-10-18T14:09:40.323Z,21.10
2022-10-18T14:12:38.215Z,21.10
2022-10-18T14:15:08.044Z,21.50
2022-10-18T14:17:49.569Z,21.80
2022-10-18T14:20:28.607Z,22.10
2022-10-18T14:23:11.452Z,21.90
2022-10-18T14:25:39.122Z,21.80
2022-10-18T14:28:36.363Z,21.70
2022-10-18T14:31:16.190Z,21.60
2022-10-18T14:33:57.564Z,21.60
2022-10-18T14:36:34.705Z,21.60
2022-10-18T14:39:04.537Z,21.60
2022-10-18T14:41:38.574Z,21.40
2022-10-18T14:44:17.243Z,21.30
2022-10-18T14:47:04.199Z,21.10
2022-10-18T14:49:31.254Z,21.00
2022-10-18T14:52:00.444Z,21.00
2022-10-18T14:54:33.815Z,21.00
2022-10-18T14:57:02.316Z,20.90
2022-10-18T14:59:51.634Z,20.90
2022-10-18T15:02:24.012Z,20.80
2022-10-18T15:05:08.311Z,20.60
2022-10-18T15:07:36.226Z,20.40
2022-10-18T15:10:05.357Z,20.20
2022-10-18T15:12:36.881Z,20.00
2022-10-18T15:15:19.776Z,19.80
2022-10-18T15:17:47.909Z,19.70
2022-10-18T15:20:31.019Z,19.50
2022-10-18T15:23:19.327Z,19.40
2022-10-18T15:25:46.487Z,19.30
2022-10-18T15:28:51.519Z,19.20
2022-10-18T15:31:33.375Z,19.00
2022-10-18T15:34:14.280Z,18.90
2022-10-18T15:36:41.367Z,18.90
2022-10-18T15:39:15.841Z,18.80
2022-10-18T15:41:50.416Z,18.70
2022-10-18T15:44:31.965Z,18.70
2022-10-18T15:47:16.197Z,18.60
2022-10-18T15:49:46.349Z,18.50
2022-10-18T15:52:22.252Z,18.40
2022-10-18T15:54:49.539Z,18.40
2022-10-18T15:57:18.834Z,18.40
2022-10-18T16:00:00.741Z,18.30
2022-10-18T16:02:28.387Z,18.30
2022-10-18T16:04:55.318Z,18.30
2022-10-18T16:07:22.291Z,18.20
2022-10-18T16:09:49.230Z,18.20
2022-10-18T16:12:16.100Z,18.20
2022-10-18T16:14:43.030Z,18.10
2022-10-18T16:17:17.000Z,17.90
2022-10-18T16:19:44.705Z,17.80
2022-10-18T16:24:45.150Z,17.80
2022-10-18T16:27:12.088Z,17.70
2022-10-18T16:29:39.098Z,17.60
2022-10-18T16:32:06.049Z,17.60
2022-10-18T16:34:33.271Z,17.50
2022-10-18T16:37:00.174Z,17.30
2022-10-18T16:39:27.130Z,17.20
2022-10-18T16:41:54.113Z,17.10
2022-10-18T16:44:21.046Z,17.10
2022-10-18T16:46:51.154Z,17.00
2022-10-18T16:49:24.395Z,16.90
2022-10-18T16:51:54.984Z,16.80
2022-10-18T16:54:22.872Z,16.80
2022-10-18T16:56:50.377Z,16.80
2022-10-18T16:59:35.307Z,16.70
2022-10-18T17:02:05.764Z,16.70
2022-10-18T17:04:32.872Z,16.70
2022-10-18T17:06:59.936Z,16.70
2022-10-18T17:09:26.867Z,16.60
2022-10-18T17:11:54.044Z,16.60
2022-10-18T17:14:20.928Z,16.60
2022-10-18T17:16:50.801Z,16.50
2022-10-18T17:19:21.696Z,16.50
2022-10-18T17:21:48.611Z,16.50
2022-10-18T17:24:15.505Z,16.50
2022-10-18T17:26:42.459Z,16.50
2022-10-18T17:29:09.994Z,16.50
2022-10-18T17:31:37.062Z,16.50
2022-10-18T17:34:04.613Z,16.50
2022-10-18T17:36:33.451Z,16.50
2022-10-18T17:39:00.619Z,16.50
2022-10-18T17:41:27.720Z,16.50
2022-10-18T17:43:54.743Z,16.50
2022-10-18T17:46:21.838Z,16.50
2022-10-18T17:48:48.767Z,16.40
2022-10-18T17:51:17.431Z,16.40
2022-10-18T17:53:44.791Z,16.50
2022-10-18T17:56:13.025Z,16.50
2022-10-18T17:58:40.013Z,16.40
2022-10-18T18:01:19.929Z,16.40
2022-10-18T18:03:49.966Z,16.40
2022-10-18T18:06:24.115Z,16.40
2022-10-18T18:08:51.046Z,16.40
2022-10-18T18:11:18.739Z,16.40
2022-10-18T18:13:46.014Z,16.30
2022-10-18T18:16:21.505Z,16.30
2022-10-18T18:18:50.522Z,16.30
2022-10-18T18:21:18.519Z,16.30
2022-10-18T18:23:45.911Z,16.30
2022-10-18T18:26:13.354Z,16.30
2022-10-18T18:28:40.484Z,16.20
2022-10-18T18:31:11.519Z,16.20
2022-10-18T18:33:38.704Z,16.20
2022-10-18T18:36:07.112Z,16.20
2022-10-18T18:38:35.906Z,16.20
2022-10-18T18:41:03.979Z,16.10
2022-10-18T18:43:30.990Z,16.10
2022-10-18T18:45:58.155Z,16.10
2022-10-18T18:48:27.055Z,16.10
2022-10-18T18:50:54.460Z,16.10
2022-10-18T18:53:21.519Z,16.00
2022-10-18T18:55:50.826Z,16.00
2022-10-18T18:58:18.025Z,16.00
2022-10-18T19:00:45.547Z,16.00
2022-10-18T19:03:13.157Z,16.00
2022-10-18T19:05:41.737Z,15.90
2022-10-18T19:08:09.505Z,15.90
2022-10-18T19:10:36.456Z,15.90
2022-10-18T19:13:03.431Z,15.80
2022-10-18T19:15:30.497Z,15.80
2022-10-18T19:17:57.487Z,15.70
2022-10-18T19:20:24.432Z,15.60
2022-10-18T19:22:51.558Z,15.50
2022-10-18T19:25:21.173Z,15.40
2022-10-18T19:27:50.444Z,15.30
2022-10-18T19:30:17.442Z,15.20
2022-10-18T19:32:44.447Z,15.10
2022-10-18T19:35:11.453Z,15.00
2022-10-18T19:37:38.452Z,15.00
2022-10-18T19:40:05.936Z,14.90
2022-10-18T19:42:33.355Z,14.90
2022-10-18T19:45:00.431Z,14.80
2022-10-18T19:47:27.465Z,14.70
2022-10-18T19:49:54.528Z,14.60
2022-10-18T19:52:21.587Z,14.50
2022-10-18T19:54:49.441Z,14.60
2022-10-18T19:57:16.557Z,14.50
2022-10-18T19:59:43.523Z,14.50
2022-10-18T20:02:15.248Z,14.40
2022-10-18T20:04:42.181Z,14.30
2022-10-18T20:07:09.561Z,14.30
2022-10-18T20:09:36.652Z,14.30
2022-10-18T20:12:03.868Z,14.20
2022-10-18T20:14:30.819Z,14.20
2022-10-18T20:16:57.939Z,14.10
2022-10-18T20:19:24.841Z,14.10
2022-10-18T20:21:51.905Z,14.10
2022-10-18T20:24:18.780Z,14.10
2022-10-18T20:26:45.884Z,14.00
2022-10-18T20:29:13.061Z,14.00
2022-10-18T20:31:40.423Z,14.00
2022-10-18T20:34:10.562Z,14.00
2022-10-18T20:36:37.992Z,14.00
2022-10-18T20:39:06.013Z,14.00
2022-10-18T20:41:35.833Z,14.10
2022-10-18T20:44:05.592Z,14.00
2022-10-18T20:46:35.205Z,14.00
2022-10-18T20:49:03.057Z,14.00
2022-10-18T20:51:30.254Z,14.00
2022-10-18T20:53:57.444Z,14.00
2022-10-18T20:56:27.251Z,14.00
2022-10-18T20:58:56.818Z,14.00
2022-10-18T21:01:30.325Z,14.00
2022-10-18T21:04:00.289Z,14.00
2022-10-18T21:06:36.575Z,14.00
2022-10-18T21:09:11.040Z,13.90
2022-10-18T21:11:40.496Z,14.00
2022-10-18T21:14:14.318Z,13.90
2022-10-18T21:16:41.863Z,13.90
2022-10-18T21:19:14.140Z,13.90
2022-10-18T21:21:44.075Z,13.90
2022-10-18T21:24:11.951Z,13.80
2022-10-18T21:26:39.412Z,13.80
2022-10-18T21:29:06.622Z,13.80
2022-10-18T21:31:36.438Z,13.90
2022-10-18T21:34:06.832Z,13.90
2022-10-18T21:36:36.650Z,13.80
2022-10-18T21:39:05.865Z,13.90
2022-10-18T21:41:33.501Z,13.80
2022-10-18T21:44:01.150Z,13.80
2022-10-18T21:46:28.132Z,13.80
2022-10-18T21:48:56.670Z,13.90
2022-10-18T21:51:25.896Z,13.90
2022-10-18T21:53:55.335Z,13.80
2022-10-18T21:56:33.452Z,13.70
2022-10-18T21:59:01.321Z,13.70
2022-10-18T22:01:34.419Z,13.60
2022-10-18T22:04:03.930Z,13.60
2022-10-18T22:09:08.428Z,13.40
2022-10-18T22:11:38.704Z,13.40
2022-10-18T22:14:05.627Z,13.30
2022-10-18T22:16:32.676Z,13.20
2022-10-18T22:19:01.977Z,13.20
2022-10-18T22:21:29.589Z,13.20
2022-10-18T22:23:57.826Z,13.20
2022-10-18T22:26:30.512Z,13.20
2022-10-18T22:29:05.632Z,13.10
2022-10-18T22:31:36.446Z,13.10
2022-10-18T22:34:06.902Z,13.10
2022-10-18T22:36:34.715Z,13.00
2022-10-18T22:39:01.913Z,13.00
2022-10-18T22:41:28.975Z,13.00
2022-10-18T22:43:58.411Z,12.90
2022-10-18T22:46:28.486Z,12.90
2022-10-18T22:48:55.521Z,12.80
2022-10-18T22:51:22.640Z,12.80
2022-10-18T22:53:49.887Z,12.80
2022-10-18T22:56:18.987Z,12.80
2022-10-18T22:58:46.648Z,12.80
2022-10-18T23:01:16.034Z,12.70
2022-10-18T23:03:43.280Z,12.70
2022-10-18T23:06:22.871Z,12.70
2022-10-18T23:08:51.015Z,12.60
2022-10-18T23:11:18.382Z,12.60
2022-10-18T23:13:45.720Z,12.50
2022-10-18T23:16:13.054Z,12.50
2022-10-18T23:18:41.521Z,12.40
2022-10-18T23:21:11.236Z,12.40
2022-10-18T23:23:41.477Z,12.30
2022-10-18T23:26:20.656Z,12.20
2022-10-18T23:28:49.945Z,12.20
2022-10-18T23:31:19.492Z,12.20
2022-10-18T23:33:48.788Z,12.10
2022-10-18T23:36:16.219Z,12.10
2022-10-18T23:38:43.686Z,12.10
2022-10-18T23:41:12.602Z,11.90
2022-10-18T23:43:40.330Z,12.00
2022-10-18T23:46:07.771Z,11.90
2022-10-18T23:48:34.872Z,11.90
2022-10-18T23:51:02.462Z,11.90
2022-10-18T23:53:30.251Z,11.90
2022-10-18T23:56:05.867Z,11.90
2022-10-18T23:58:34.371Z,11.90
